AirNav   SIMCOM
 
 303 users online  

4VA3 Flying W Airport
Richmond, Virginia, USA

GOING TO RICHMOND?


FAA INFORMATION EFFECTIVE 20 JULY 2017

Location

FAA Identifier: 4VA3
Lat/Long: 37-25-47.5320N / 077-23-39.9340W
37-25.792200N / 077-23.665567W
37.4298700 / -77.3944261
(estimated)
Elevation: 101 ft. / 30.8 m (surveyed)
Variation: 09W (1985)
From city: 8 miles SE of RICHMOND, VA
Time zone: UTC -4 (UTC -5 during Standard Time)
Zip code: 23231

Airport Operations

Airport use: Private use. Permission required prior to landing
Activation date: 03/1978
Control tower: no
ARTCC: WASHINGTON CENTER
FSS: LEESBURG FLIGHT SERVICE STATION
Attendance: CONTINUOUS
Wind indicator: yes
Segmented circle: no

Airport Communications

WX ASOS at RIC (6 nm NE): PHONE 804-236-1091
WX AWOS-3 at FCI (6 nm W): 128.625 (804-271-8426)
WX AWOS-3 at W96 (13 nm E): 119.875 (804-932-8863)
WX AWOS-3 at PTB (16 nm S): 133.325 (804-861-5551)
WX ASOS at OFP (17 nm N): 119.025 (804-752-2902)

Nearby radio navigation aids

VOR radial/distance  VOR name  Freq  Var
RICr228/5.6RICHMOND VORTAC114.1009W
HPWr301/14.6HOPEWELL VORTAC112.0006W
FAKr112/21.5FLAT ROCK VORTAC113.3006W
HCMr275/32.6HARCUM VORTAC108.8007W

 
NDB name  Hdg/Dist  Freq  Var  ID
PETERSBURG034/19.928408WPTB .--. - -...
WAKEFIELD334/32.827409WAKQ .- -.- --.-
BLACKSTONE069/36.032609WBKT -... -.- -

Airport Services

Runway Information

Runway 5/23

Dimensions: 2250 x 50 ft. / 686 x 15 m
Surface: turf
Runway edge markings: 05/23 RWY MARKED WITH WHITE CONES.
RUNWAY 5  RUNWAY 23
Traffic pattern: leftleft
Obstructions: none40 ft. pline, marked, 30 ft. from runway

Airport Ownership and Management from official FAA records

Ownership: Privately-owned
Owner: GERALD WEAVER
8570 OSBORNE TURNPIKE
RICHMOND, VA 23231
Phone 804-795-1725
Manager: G P WEAVER
8570 OSBORNE TURNPIKE
RICHMOND, VA 23231
Phone 804-795-1725

Airport Operational Statistics

Aircraft based on the field: 5
Single engine airplanes: 4
Ultralights: 1
    

Instrument Procedures

There are no published instrument procedures at 4VA3.

Some nearby airports with instrument procedures:

KRIC - Richmond International Airport (6 nm NE)
KFCI - Richmond Executive Airport-Chesterfield County (6 nm W)
W96 - New Kent County Airport (13 nm E)
KPTB - Dinwiddie County Airport (16 nm S)
KOFP - Hanover County Municipal Airport (17 nm N)
 
Loc | Ops | Rwys | IFR | FBO | Links
Com | Nav | Svcs | Stats | Notes


 
Area around 4VA3 (Flying W Airport)
 
Road maps at: MapQuest Bing Google
 
Aerial photo
No photo
 
Sectional chart

 
Airport distance calculator
Flying to Flying W Airport? Find the distance to fly.

From to 4VA3

Sunrise and sunset
Times for 24-Jul-2017
 Local
(UTC-4)
 Zulu
(UTC)
Morning civil twilight05:3909:39
Sunrise06:0810:08
Sunset20:2400:24
Evening civil twilight20:5300:53

Current date and time
Zulu (UTC)  24-Jul-2017 09:37:20
Local (UTC-4)  24-Jul-2017 05:37:20
 
METAR
KFCI 
6nm W 
240556Z AUTO 18005KT 10SM -RA SCT065 BKN085 24/23 A2982 RMK AO2 RAE0458B46 SLP108 P0000 60042 T02440228 10317 20244 58012
KRIC 
6nm NE 
240854Z 19006KT 10SM SCT200 22/22 A2978 RMK AO2 SLP086 60001 T02220217 58008
KW96 
13nm E 
240915Z AUTO 20004KT 10SM CLR 22/22 A2978 RMK AO1 T02220222
KOFP 
16nm N 
240854Z AUTO 19006KT 10SM CLR 23/21 A2978 RMK AO2 SLP083 60000 T02330206 58004
KPTB 
17nm S 
240915Z AUTO 00000KT 10SM CLR 22/20 A2981 RMK AO2 T02210195
TAF
KRIC 
6nm NE 
240544Z 2406/2506 11003KT P6SM VCTS SCT050CB SCT120 OVC150 FM240800 VRB05KT P6SM VCSH SCT050 BKN070 FM241600 23007KT P6SM SCT100
NOTAMs
Click for the latest NOTAMs
NOTAMs are issued by the DoD/FAA and will open in a separate window not controlled by AirNav.

 

 
 

Would you like to see your business listed on this page?

 If your business provides an interesting product or service to pilots, flight crews, aircraft, or users of the Flying W Airport, you should consider listing it here.  To start the listing process, click on the button below
 
Add a business
 

Other Pages about Flying W Airport

Update a link
 
Copyright © AirNav, LLC. All rights reserved. Privacy Policy  Contact